Time;durP1;ratioP1;P1;durP2;ratioP2;P2;SDS_P1;SDS_P2;PMS_P1;PMS_P2;Temp;Humidity;BMP_temperature;BMP_pressure;BME280_temperature;BME280_humidity;BME280_pressure;Samples;Min_cycle;Max_cycle;Signal;HPM_P1;HPM_P2
2022/11/16 00:01:09;;;;;;;1.00;0.20;;;;;;;;;;6157389;23;20032;-49
2022/11/16 00:03:37;;;;;;;1.10;0.20;;;;;;;;;;6158133;23;20028;-49
2022/11/16 00:06:05;;;;;;;0.93;0.20;;;;;;;;;;6156698;23;20455;-48
2022/11/16 00:08:32;;;;;;;1.20;0.20;;;;;;;;;;6158632;23;20017;-48
2022/11/16 00:11:03;;;;;;;1.10;0.20;;;;;;;;;;6154333;23;20017;-49
2022/11/16 00:13:31;;;;;;;1.40;0.30;;;;;;;;;;6163647;23;20343;-48
2022/11/16 00:15:57;;;;;;;1.70;0.63;;;;;;;;;;6135321;23;20434;-51
2022/11/16 00:18:24;;;;;;;1.02;0.17;;;;;;;;;;6163858;23;20021;-52
2022/11/16 00:20:52;;;;;;;1.20;0.20;;;;;;;;;;6156971;23;20295;-52
2022/11/16 00:23:18;;;;;;;0.90;0.10;;;;;;;;;;6161755;23;20103;-54
2022/11/16 00:25:45;;;;;;;1.30;0.30;;;;;;;;;;6154887;23;20012;-51
2022/11/16 00:28:12;;;;;;;1.00;0.20;;;;;;;;;;6161975;23;20025;-52
2022/11/16 00:30:39;;;;;;;1.10;0.20;;;;;;;;;;6157416;23;20017;-51
2022/11/16 00:33:06;;;;;;;1.17;0.20;;;;;;;;;;6161868;23;20357;-50
2022/11/16 00:35:37;;;;;;;1.20;0.20;;;;;;;;;;6160741;23;20021;-50
2022/11/16 00:38:05;;;;;;;1.00;0.10;;;;;;;;;;6162798;23;20029;-49
2022/11/16 00:40:32;;;;;;;0.95;0.15;;;;;;;;;;6159424;23;20439;-49
2022/11/16 00:42:59;;;;;;;0.90;0.10;;;;;;;;;;6162414;23;20025;-51
2022/11/16 00:45:25;;;;;;;1.05;0.20;;;;;;;;;;6162955;23;20482;-51
2022/11/16 00:47:52;;;;;;;1.00;0.20;;;;;;;;;;6160455;23;20017;-50
2022/11/16 00:50:19;;;;;;;1.20;0.20;;;;;;;;;;6159612;23;20358;-53
2022/11/16 00:52:45;;;;;;;1.20;0.20;;;;;;;;;;6157214;23;20020;-51
2022/11/16 00:55:13;;;;;;;1.10;0.20;;;;;;;;;;6163620;23;20382;-50
2022/11/16 00:57:40;;;;;;;1.23;0.28;;;;;;;;;;6153387;23;20024;-53
2022/11/16 01:00:08;;;;;;;1.00;0.13;;;;;;;;;;6161371;23;20379;-53
2022/11/16 01:02:34;;;;;;;1.30;0.38;;;;;;;;;;6160322;23;20519;-48
2022/11/16 01:05:01;;;;;;;0.90;0.10;;;;;;;;;;6161207;23;20040;-50
2022/11/16 01:07:27;;;;;;;0.90;0.20;;;;;;;;;;6159808;23;20025;-48
2022/11/16 01:09:54;;;;;;;0.90;0.15;;;;;;;;;;6161171;23;20028;-48
2022/11/16 01:12:21;;;;;;;1.10;0.20;;;;;;;;;;6156083;23;20017;-50
2022/11/16 01:14:47;;;;;;;0.90;0.20;;;;;;;;;;6164376;23;20021;-50
2022/11/16 01:17:14;;;;;;;0.98;0.20;;;;;;;;;;6155300;23;20021;-52
2022/11/16 01:19:41;;;;;;;3.90;1.40;;;;;;;;;;6161447;23;20025;-50
2022/11/16 01:22:07;;;;;;;1.40;0.55;;;;;;;;;;6158252;23;20028;-51
2022/11/16 01:24:34;;;;;;;0.97;0.13;;;;;;;;;;6164707;23;20013;-51
2022/11/16 01:27:00;;;;;;;4.50;0.35;;;;;;;;;;6157338;23;20013;-51
2022/11/16 01:29:29;;;;;;;1.30;0.20;;;;;;;;;;6161443;23;20013;-51
2022/11/16 01:31:56;;;;;;;0.93;0.10;;;;;;;;;;6158465;23;20423;-50
2022/11/16 01:34:23;;;;;;;0.98;0.10;;;;;;;;;;6158989;23;20034;-53
2022/11/16 01:36:49;;;;;;;0.90;0.10;;;;;;;;;;6157830;23;20052;-51
2022/11/16 01:39:16;;;;;;;1.20;0.20;;;;;;;;;;6162446;23;20017;-52
2022/11/16 01:41:43;;;;;;;1.10;0.20;;;;;;;;;;6156782;23;20443;-51
2022/11/16 01:44:25;;;;;;;1.08;0.20;;;;;;;;;;6160405;23;20072;-52
2022/11/16 01:46:52;;;;;;;1.40;0.30;;;;;;;;;;6155162;23;20088;-52
2022/11/16 01:49:20;;;;;;;0.90;0.20;;;;;;;;;;6162129;23;20013;-52
2022/11/16 01:51:49;;;;;;;9.07;1.35;;;;;;;;;;6154216;23;20699;-50
2022/11/16 01:54:17;;;;;;;1.00;0.20;;;;;;;;;;6157692;23;20388;-51
2022/11/16 01:56:45;;;;;;;1.13;0.20;;;;;;;;;;6159253;23;20025;-50
2022/11/16 01:59:12;;;;;;;5.10;0.90;;;;;;;;;;6159588;23;20475;-50
2022/11/16 02:01:38;;;;;;;0.90;0.10;;;;;;;;;;6159435;23;20396;-52
2022/11/16 02:04:06;;;;;;;1.00;0.17;;;;;;;;;;6158951;23;20518;-48
2022/11/16 02:06:38;;;;;;;1.27;0.20;;;;;;;;;;6160542;23;20020;-52
2022/11/16 02:12:05;;;;;;;1.73;0.73;;;;;;;;;;6161113;23;20028;-49
2022/11/16 02:14:37;;;;;;;1.03;0.20;;;;;;;;;;6163440;23;20017;-51
2022/11/16 02:17:07;;;;;;;1.20;0.32;;;;;;;;;;6155598;23;20031;-50
2022/11/16 02:19:54;;;;;;;1.00;0.20;;;;;;;;;;6161769;23;20021;-52
2022/11/16 02:22:27;;;;;;;0.95;0.10;;;;;;;;;;6158366;23;20028;-52
2022/11/16 02:24:56;;;;;;;1.20;0.20;;;;;;;;;;6153824;23;20487;-52
2022/11/16 02:27:32;;;;;;;0.90;0.10;;;;;;;;;;6162478;23;20021;-52
2022/11/16 02:30:01;;;;;;;1.27;0.30;;;;;;;;;;6154985;23;20020;-53
2022/11/16 02:32:30;;;;;;;1.15;0.25;;;;;;;;;;6134989;23;20028;-52
2022/11/16 02:35:01;;;;;;;1.08;0.20;;;;;;;;;;6132424;23;20017;-52
2022/11/16 02:37:29;;;;;;;1.30;0.40;;;;;;;;;;6162172;23;20436;-51
2022/11/16 02:39:57;;;;;;;1.13;0.20;;;;;;;;;;6156204;23;20032;-49
2022/11/16 02:42:26;;;;;;;1.00;0.20;;;;;;;;;;6161568;23;20017;-50
2022/11/16 02:44:54;;;;;;;1.10;0.20;;;;;;;;;;6158837;23;20017;-49
2022/11/16 02:47:23;;;;;;;1.05;0.20;;;;;;;;;;6133999;23;20455;-49
2022/11/16 02:49:51;;;;;;;1.60;0.40;;;;;;;;;;6156380;23;20840;-49
2022/11/16 02:52:19;;;;;;;1.27;0.20;;;;;;;;;;6158270;23;20021;-50
2022/11/16 02:54:46;;;;;;;0.93;0.10;;;;;;;;;;6160327;23;20025;-49
2022/11/16 02:57:23;;;;;;;1.30;0.20;;;;;;;;;;6158471;23;20275;-48
2022/11/16 02:59:52;;;;;;;3.53;0.22;;;;;;;;;;6143092;23;20573;-51
2022/11/16 03:02:21;;;;;;;1.27;0.20;;;;;;;;;;6160502;23;20021;-48
2022/11/16 03:04:52;;;;;;;1.00;0.20;;;;;;;;;;6161533;23;20095;-51
2022/11/16 03:07:22;;;;;;;1.00;0.20;;;;;;;;;;6125374;23;20874;-50
2022/11/16 03:09:50;;;;;;;1.10;0.20;;;;;;;;;;6158184;23;20607;-51
2022/11/16 03:12:17;;;;;;;1.25;0.22;;;;;;;;;;6158907;23;20017;-50
2022/11/16 03:14:46;;;;;;;1.20;0.20;;;;;;;;;;6160558;23;20016;-52
2022/11/16 03:17:16;;;;;;;1.13;0.20;;;;;;;;;;6157708;23;20025;-49
2022/11/16 03:19:43;;;;;;;1.50;0.20;;;;;;;;;;6160303;23;20629;-49
2022/11/16 03:22:14;;;;;;;1.00;0.20;;;;;;;;;;6157359;23;20018;-48
2022/11/16 03:24:41;;;;;;;1.10;0.20;;;;;;;;;;6162132;23;20021;-53
2022/11/16 03:27:12;;;;;;;1.10;0.20;;;;;;;;;;6142592;23;20017;-49
2022/11/16 03:29:40;;;;;;;1.10;0.20;;;;;;;;;;6160786;23;20083;-48
2022/11/16 03:32:11;;;;;;;1.10;0.20;;;;;;;;;;6158340;23;20012;-48
2022/11/16 03:34:38;;;;;;;1.10;0.20;;;;;;;;;;6161139;23;20029;-48
2022/11/16 03:37:06;;;;;;;1.10;0.20;;;;;;;;;;6154236;23;20442;-52
2022/11/16 03:39:37;;;;;;;1.00;0.20;;;;;;;;;;6158862;23;20023;-48
2022/11/16 03:42:06;;;;;;;1.00;0.20;;;;;;;;;;6156002;23;20021;-50
2022/11/16 03:44:34;;;;;;;1.17;0.20;;;;;;;;;;6160063;23;20051;-48
2022/11/16 03:47:01;;;;;;;0.90;0.10;;;;;;;;;;6132549;23;20016;-50
2022/11/16 03:49:29;;;;;;;0.90;0.10;;;;;;;;;;6161347;23;20017;-52
2022/11/16 03:51:56;;;;;;;1.00;0.20;;;;;;;;;;6151709;23;20068;-52
2022/11/16 03:54:22;;;;;;;1.10;0.20;;;;;;;;;;6158899;23;20013;-49
2022/11/16 03:56:50;;;;;;;1.00;0.20;;;;;;;;;;6159622;23;20017;-49
2022/11/16 03:59:17;;;;;;;1.05;0.20;;;;;;;;;;6156843;23;20432;-50
2022/11/16 04:01:43;;;;;;;0.90;0.10;;;;;;;;;;6164023;23;20068;-50
2022/11/16 04:24:10;;;;;;;0.90;0.10;;;;;;;;;;6157557;23;20017;-50
2022/11/16 04:26:08;;;;;;;1.17;0.30;;;;;;;;;;6156867;23;20021;-48
2022/11/16 04:28:35;;;;;;;1.00;0.20;;;;;;;;;;6157438;23;20017;-51
2022/11/16 04:39:15;;;;;;;1.00;0.20;;;;;;;;;;6161174;23;20048;-51
2022/11/16 04:47:05;;;;;;;0.80;0.10;;;;;;;;;;6156520;23;20072;-48
2022/11/16 04:47:13;;;;;;;0.77;0.10;;;;;;;;;;6155333;23;20072;-48
2022/11/16 04:49:39;;;;;;;0.70;0.10;;;;;;;;;;6163646;23;20021;-50
2022/11/16 04:52:06;;;;;;;0.90;0.20;;;;;;;;;;6164784;23;20052;-51
2022/11/16 04:54:32;;;;;;;0.80;0.10;;;;;;;;;;6156725;23;20016;-48
2022/11/16 04:56:59;;;;;;;1.55;0.43;;;;;;;;;;6161571;23;20071;-49
2022/11/16 04:59:27;;;;;;;1.00;0.20;;;;;;;;;;6157478;23;20013;-49
2022/11/16 05:02:08;;;;;;;1.50;0.73;;;;;;;;;;6153563;23;20021;-50
2022/11/16 05:04:35;;;;;;;1.10;0.20;;;;;;;;;;6159949;23;20048;-52
2022/11/16 05:07:01;;;;;;;1.10;0.20;;;;;;;;;;6148420;23;20451;-53
2022/11/16 05:09:28;;;;;;;1.10;0.20;;;;;;;;;;6163078;23;20083;-49
2022/11/16 05:11:54;;;;;;;1.20;0.30;;;;;;;;;;6158119;23;20020;-49
2022/11/16 05:14:21;;;;;;;1.33;0.73;;;;;;;;;;6148070;23;20028;-49
2022/11/16 05:16:48;;;;;;;1.10;0.30;;;;;;;;;;6162404;23;20021;-51
2022/11/16 05:21:59;;;;;;;0.98;0.25;;;;;;;;;;6151734;23;20084;-52
2022/11/16 05:24:35;;;;;;;1.40;0.30;;;;;;;;;;6153074;23;20046;-50
2022/11/16 05:27:01;;;;;;;1.58;0.20;;;;;;;;;;6155111;23;20063;-49
2022/11/16 05:29:28;;;;;;;0.95;0.20;;;;;;;;;;6159760;23;20071;-52
2022/11/16 05:31:56;;;;;;;1.33;0.20;;;;;;;;;;6157125;23;20021;-48
2022/11/16 05:34:23;;;;;;;2.95;0.55;;;;;;;;;;6164891;23;20013;-48
2022/11/16 05:36:49;;;;;;;1.70;0.55;;;;;;;;;;6156068;23;20261;-50
2022/11/16 05:39:16;;;;;;;1.20;0.20;;;;;;;;;;6160722;23;20071;-51
2022/11/16 05:41:42;;;;;;;1.00;0.20;;;;;;;;;;6155771;23;20044;-47
2022/11/16 05:44:09;;;;;;;1.17;0.20;;;;;;;;;;6160703;23;20013;-50
2022/11/16 05:46:35;;;;;;;1.80;0.25;;;;;;;;;;6132021;23;20028;-49
2022/11/16 05:49:06;;;;;;;5.40;1.15;;;;;;;;;;6162438;23;20016;-48
2022/11/16 05:51:33;;;;;;;1.00;0.20;;;;;;;;;;6155689;23;20590;-49
2022/11/16 05:53:59;;;;;;;1.10;0.20;;;;;;;;;;6165988;23;20013;-51
2022/11/16 05:56:26;;;;;;;1.30;0.30;;;;;;;;;;6148743;23;20356;-53
2022/11/16 05:58:52;;;;;;;1.15;0.20;;;;;;;;;;6160896;23;20020;-50
2022/11/16 06:01:19;;;;;;;0.73;0.10;;;;;;;;;;6153138;23;20021;-52
2022/11/16 06:03:45;;;;;;;3.72;1.10;;;;;;;;;;6159411;23;20470;-48
2022/11/16 06:06:13;;;;;;;1.17;0.20;;;;;;;;;;6153014;23;20018;-48
2022/11/16 06:08:39;;;;;;;0.93;0.13;;;;;;;;;;6156150;23;20415;-51
2022/11/16 06:11:07;;;;;;;1.10;0.20;;;;;;;;;;6157536;23;20013;-48
2022/11/16 06:13:34;;;;;;;1.33;0.20;;;;;;;;;;6164906;23;20021;-50
2022/11/16 06:16:00;;;;;;;1.00;0.10;;;;;;;;;;6153291;23;20072;-50
2022/11/16 06:18:27;;;;;;;1.25;0.20;;;;;;;;;;6162070;23;20024;-49
2022/11/16 06:20:53;;;;;;;1.40;0.20;;;;;;;;;;6157112;23;20020;-47
2022/11/16 06:23:21;;;;;;;1.27;0.20;;;;;;;;;;6158509;23;20028;-51
2022/11/16 06:25:52;;;;;;;1.00;0.20;;;;;;;;;;6157565;23;20013;-49
2022/11/16 06:28:18;;;;;;;0.88;0.10;;;;;;;;;;6163293;23;20017;-47
2022/11/16 06:30:45;;;;;;;1.10;0.30;;;;;;;;;;6151580;23;20013;-51
2022/11/16 06:33:11;;;;;;;1.40;0.40;;;;;;;;;;6133988;23;20029;-52
2022/11/16 06:35:38;;;;;;;1.33;0.22;;;;;;;;;;6158094;23;20017;-49
2022/11/16 06:38:04;;;;;;;1.00;0.20;;;;;;;;;;6162726;23;20017;-50
2022/11/16 06:40:32;;;;;;;2.08;0.95;;;;;;;;;;6160459;23;20024;-51
2022/11/16 06:42:59;;;;;;;1.63;0.30;;;;;;;;;;6159229;23;20339;-49
2022/11/16 06:45:26;;;;;;;1.50;0.57;;;;;;;;;;6157542;23;20013;-52
2022/11/16 06:47:53;;;;;;;1.10;0.20;;;;;;;;;;6161692;23;20028;-49
2022/11/16 06:50:19;;;;;;;1.85;0.50;;;;;;;;;;6159508;23;20650;-47
2022/11/16 06:52:46;;;;;;;1.52;0.75;;;;;;;;;;6154257;23;20021;-52
2022/11/16 06:55:13;;;;;;;2.20;1.00;;;;;;;;;;6157882;23;20068;-47
2022/11/16 06:57:41;;;;;;;0.90;0.20;;;;;;;;;;6159627;23;20024;-47
2022/11/16 07:00:08;;;;;;;1.15;0.28;;;;;;;;;;6152720;23;20475;-47
2022/11/16 07:02:36;;;;;;;1.42;0.20;;;;;;;;;;6157992;23;20017;-51
2022/11/16 07:05:04;;;;;;;1.10;0.20;;;;;;;;;;6149996;23;20025;-48
2022/11/16 07:07:31;;;;;;;1.45;0.45;;;;;;;;;;6155992;23;20024;-49
2022/11/16 07:09:58;;;;;;;1.40;0.30;;;;;;;;;;6127537;23;20334;-52
2022/11/16 07:12:25;;;;;;;1.10;0.20;;;;;;;;;;6145657;23;20048;-50
2022/11/16 07:14:53;;;;;;;1.00;0.20;;;;;;;;;;6139453;23;20025;-48
2022/11/16 07:17:19;;;;;;;1.40;0.20;;;;;;;;;;6144823;23;20048;-48
2022/11/16 07:19:46;;;;;;;1.20;0.28;;;;;;;;;;6141145;23;20522;-51
2022/11/16 07:22:12;;;;;;;1.20;0.20;;;;;;;;;;6130745;23;20083;-48
2022/11/16 07:24:39;;;;;;;1.10;0.20;;;;;;;;;;6148501;23;20017;-49
2022/11/16 07:27:07;;;;;;;0.90;0.10;;;;;;;;;;6144924;23;20134;-51
2022/11/16 07:29:33;;;;;;;1.30;0.20;;;;;;;;;;6146489;23;20017;-53
2022/11/16 07:32:01;;;;;;;1.35;0.25;;;;;;;;;;6144284;23;20020;-49
2022/11/16 07:34:28;;;;;;;1.50;0.30;;;;;;;;;;6149432;23;20067;-51
2022/11/16 07:36:54;;;;;;;1.10;0.20;;;;;;;;;;6143495;23;20071;-50
2022/11/16 07:39:21;;;;;;;1.13;0.20;;;;;;;;;;6144705;23;20099;-48
2022/11/16 07:41:49;;;;;;;0.95;0.20;;;;;;;;;;6144206;23;20017;-51
2022/11/16 07:44:15;;;;;;;1.10;0.20;;;;;;;;;;6150754;23;20112;-50
2022/11/16 07:46:42;;;;;;;1.03;0.20;;;;;;;;;;6145584;23;20456;-48
2022/11/16 07:49:14;;;;;;;0.98;0.17;;;;;;;;;;6143569;23;20017;-48
2022/11/16 07:51:40;;;;;;;1.20;0.20;;;;;;;;;;6144625;23;20480;-49
2022/11/16 07:54:07;;;;;;;1.08;0.17;;;;;;;;;;6150305;23;20444;-51
2022/11/16 07:56:34;;;;;;;1.10;0.20;;;;;;;;;;6146476;23;20022;-48
2022/11/16 07:59:00;;;;;;;1.30;0.20;;;;;;;;;;6141430;23;20025;-50
2022/11/16 08:01:27;;;;;;;1.73;0.73;;;;;;;;;;6145738;23;20091;-50
2022/11/16 08:03:53;;;;;;;1.10;0.20;;;;;;;;;;6144166;23;20546;-51
2022/11/16 08:06:23;;;;;;;1.02;0.20;;;;;;;;;;6147630;23;20017;-49
2022/11/16 08:08:49;;;;;;;0.93;0.20;;;;;;;;;;6139719;23;20013;-51
2022/11/16 08:11:16;;;;;;;0.80;0.10;;;;;;;;;;6142471;23;20452;-52
2022/11/16 08:13:42;;;;;;;1.10;0.20;;;;;;;;;;6120563;23;20024;-52
2022/11/16 08:16:10;;;;;;;1.05;0.15;;;;;;;;;;6140665;23;20072;-51
2022/11/16 08:18:38;;;;;;;1.13;0.20;;;;;;;;;;6138316;23;20024;-48
2022/11/16 08:21:05;;;;;;;1.17;0.20;;;;;;;;;;6148929;23;20017;-48
2022/11/16 08:23:33;;;;;;;1.30;0.20;;;;;;;;;;6075998;23;20199;-48
2022/11/16 08:26:00;;;;;;;2.05;1.00;;;;;;;;;;6090303;23;20036;-47
2022/11/16 08:28:27;;;;;;;1.10;0.20;;;;;;;;;;6080540;23;20469;-50
2022/11/16 08:30:54;;;;;;;1.15;0.20;;;;;;;;;;6091675;23;20143;-49
2022/11/16 08:33:22;;;;;;;1.05;0.20;;;;;;;;;;6085726;23;20025;-51
2022/11/16 08:35:49;;;;;;;1.47;0.30;;;;;;;;;;6089293;23;20018;-50
2022/11/16 08:38:20;;;;;;;1.30;0.20;;;;;;;;;;6076909;23;20022;-49
2022/11/16 08:40:49;;;;;;;1.08;0.25;;;;;;;;;;6062334;23;20018;-49
2022/11/16 08:43:16;;;;;;;1.10;0.20;;;;;;;;;;6086356;23;20108;-48
2022/11/16 08:45:46;;;;;;;1.20;0.20;;;;;;;;;;6061381;23;20460;-51
2022/11/16 08:48:13;;;;;;;1.37;0.27;;;;;;;;;;6055569;23;20594;-49
2022/11/16 08:50:39;;;;;;;1.10;0.20;;;;;;;;;;6082628;23;20018;-48
2022/11/16 08:53:06;;;;;;;1.05;0.20;;;;;;;;;;6087623;23;20018;-52
2022/11/16 08:55:32;;;;;;;1.00;0.20;;;;;;;;;;6086043;23;20520;-50
2022/11/16 08:58:00;;;;;;;0.95;0.20;;;;;;;;;;6072422;23;20025;-49
2022/11/16 09:00:27;;;;;;;1.20;0.20;;;;;;;;;;6085895;23;20024;-48
2022/11/16 09:02:53;;;;;;;1.13;0.20;;;;;;;;;;6085196;23;20025;-51
2022/11/16 09:05:20;;;;;;;1.67;0.63;;;;;;;;;;6084453;23;20026;-49
2022/11/16 09:07:46;;;;;;;0.98;0.20;;;;;;;;;;6080248;23;20014;-51
2022/11/16 09:10:13;;;;;;;1.20;0.22;;;;;;;;;;6082717;23;20077;-49
2022/11/16 09:12:39;;;;;;;1.30;0.20;;;;;;;;;;6080948;23;20018;-52
2022/11/16 09:15:08;;;;;;;1.23;0.20;;;;;;;;;;6089801;23;20018;-50
2022/11/16 09:17:34;;;;;;;8.88;0.43;;;;;;;;;;6079318;23;20358;-48
2022/11/16 09:20:01;;;;;;;1.38;0.30;;;;;;;;;;6085055;23;20018;-48
2022/11/16 09:22:27;;;;;;;1.10;0.20;;;;;;;;;;6086423;23;20073;-50
2022/11/16 09:24:54;;;;;;;1.23;0.23;;;;;;;;;;6089054;23;20073;-48
2022/11/16 09:27:20;;;;;;;1.20;0.20;;;;;;;;;;6085737;23;20080;-51
2022/11/16 09:29:47;;;;;;;1.00;0.20;;;;;;;;;;6082853;23;20018;-48
2022/11/16 09:32:15;;;;;;;1.15;0.20;;;;;;;;;;6061379;23;20022;-50
2022/11/16 09:34:41;;;;;;;1.10;0.20;;;;;;;;;;6084035;23;20017;-47
2022/11/16 09:37:08;;;;;;;1.10;0.20;;;;;;;;;;6086349;23;20084;-52
2022/11/16 09:39:35;;;;;;;1.20;0.20;;;;;;;;;;6073760;23;20128;-50
2022/11/16 09:42:07;;;;;;;1.05;0.20;;;;;;;;;;6052709;23;20436;-51
2022/11/16 09:44:48;;;;;;;1.00;0.28;;;;;;;;;;6083003;23;20464;-48
2022/11/16 09:47:17;;;;;;;0.88;0.17;;;;;;;;;;6082877;23;20364;-53
2022/11/16 09:49:47;;;;;;;1.30;0.30;;;;;;;;;;6073204;23;20667;-49
2022/11/16 09:52:18;;;;;;;1.05;0.20;;;;;;;;;;6081504;23;20073;-50
2022/11/16 09:54:46;;;;;;;0.80;0.10;;;;;;;;;;6079340;23;20022;-50
2022/11/16 09:57:26;;;;;;;1.00;0.20;;;;;;;;;;6085819;23;20780;-52
2022/11/16 09:59:54;;;;;;;1.00;0.20;;;;;;;;;;6072554;23;20033;-49
2022/11/16 10:02:24;;;;;;;1.20;0.20;;;;;;;;;;6084482;23;20081;-47
2022/11/16 10:04:53;;;;;;;1.30;0.35;;;;;;;;;;6060563;23;20029;-49
2022/11/16 10:07:22;;;;;;;1.40;0.30;;;;;;;;;;6086630;23;20479;-47
2022/11/16 10:09:49;;;;;;;1.50;0.30;;;;;;;;;;6080546;23;20017;-49
2022/11/16 10:12:18;;;;;;;1.33;0.20;;;;;;;;;;6084591;23;20017;-49
2022/11/16 10:15:00;;;;;;;2.87;0.27;;;;;;;;;;6084397;23;20432;-47
2022/11/16 10:17:33;;;;;;;1.20;0.20;;;;;;;;;;6088237;23;20022;-50
2022/11/16 10:20:06;;;;;;;1.20;0.20;;;;;;;;;;6086618;23;20052;-49
2022/11/16 10:22:41;;;;;;;1.30;0.20;;;;;;;;;;6082856;23;20108;-50
2022/11/16 10:25:14;;;;;;;1.20;0.20;;;;;;;;;;6087031;23;20077;-48
2022/11/16 10:27:49;;;;;;;1.37;0.20;;;;;;;;;;6085602;23;20041;-47
2022/11/16 10:30:17;;;;;;;1.60;0.65;;;;;;;;;;6083490;23;20021;-49
2022/11/16 10:32:47;;;;;;;0.98;0.20;;;;;;;;;;6087359;23;20018;-47
2022/11/16 10:35:16;;;;;;;1.23;0.20;;;;;;;;;;6085311;23;20037;-49
2022/11/16 10:37:46;;;;;;;1.02;0.20;;;;;;;;;;6087681;23;20093;-49
2022/11/16 10:40:16;;;;;;;1.63;0.43;;;;;;;;;;6074822;23;20049;-49
2022/11/16 10:42:44;;;;;;;1.52;0.52;;;;;;;;;;6062250;23;20084;-49
2022/11/16 10:45:15;;;;;;;1.40;0.30;;;;;;;;;;6085994;23;20135;-47
2022/11/16 10:47:45;;;;;;;1.00;0.20;;;;;;;;;;6087606;23;20018;-49
2022/11/16 10:50:26;;;;;;;1.20;0.20;;;;;;;;;;6075560;23;20010;-48
2022/11/16 10:52:52;;;;;;;1.20;0.20;;;;;;;;;;6089962;23;20022;-47
2022/11/16 10:55:20;;;;;;;1.20;0.20;;;;;;;;;;6083615;23;20021;-47
2022/11/16 10:57:53;;;;;;;1.10;0.20;;;;;;;;;;6081103;23;20635;-48
2022/11/16 11:00:33;;;;;;;1.88;0.55;;;;;;;;;;6087326;23;20076;-48
2022/11/16 11:02:59;;;;;;;1.20;0.20;;;;;;;;;;6085169;23;20022;-47
2022/11/16 11:05:28;;;;;;;1.07;0.20;;;;;;;;;;6089985;23;20069;-51
2022/11/16 11:08:01;;;;;;;1.20;0.20;;;;;;;;;;6078337;23;20326;-48
2022/11/16 11:10:28;;;;;;;1.25;0.20;;;;;;;;;;6090455;23;20081;-50
2022/11/16 11:13:06;;;;;;;1.65;1.08;;;;;;;;;;6084740;23;20054;-49
2022/11/16 11:15:33;;;;;;;1.00;0.20;;;;;;;;;;6061766;23;20024;-48
2022/11/16 11:18:19;;;;;;;1.10;0.20;;;;;;;;;;6084529;23;20030;-49
2022/11/16 11:20:49;;;;;;;1.08;0.20;;;;;;;;;;6084041;23;20397;-50
2022/11/16 11:23:18;;;;;;;1.30;0.30;;;;;;;;;;6091378;23;20013;-50
2022/11/16 11:25:53;;;;;;;1.23;0.28;;;;;;;;;;6086762;23;20017;-48
2022/11/16 11:28:21;;;;;;;1.27;0.20;;;;;;;;;;6075473;23;20120;-51
2022/11/16 11:30:52;;;;;;;1.63;0.53;;;;;;;;;;6088212;23;20503;-48
2022/11/16 11:33:20;;;;;;;1.60;0.40;;;;;;;;;;6087030;23;20081;-45
2022/11/16 11:35:56;;;;;;;1.30;0.20;;;;;;;;;;6087939;23;20025;-47
2022/11/16 11:38:22;;;;;;;1.55;0.40;;;;;;;;;;6073952;23;20022;-49
2022/11/16 11:40:56;;;;;;;1.60;0.40;;;;;;;;;;6090681;23;20092;-50
2022/11/16 11:43:23;;;;;;;1.50;0.30;;;;;;;;;;6084778;23;20021;-48
2022/11/16 11:45:53;;;;;;;1.30;0.30;;;;;;;;;;6083587;23;20100;-49
2022/11/16 11:48:27;;;;;;;1.20;0.20;;;;;;;;;;6075362;23;21112;-50
2022/11/16 11:50:57;;;;;;;1.45;0.40;;;;;;;;;;6085424;23;20327;-49
2022/11/16 11:53:30;;;;;;;1.40;0.20;;;;;;;;;;6078571;23;20444;-48
2022/11/16 11:55:57;;;;;;;1.40;0.30;;;;;;;;;;6085750;23;20018;-48
2022/11/16 11:58:28;;;;;;;1.08;0.20;;;;;;;;;;6072240;23;20085;-49
2022/11/16 12:00:59;;;;;;;1.38;0.20;;;;;;;;;;6083451;23;20385;-48
2022/11/16 12:03:33;;;;;;;1.83;0.60;;;;;;;;;;6089357;23;20018;-48
2022/11/16 12:06:14;;;;;;;1.40;0.20;;;;;;;;;;6087040;23;20022;-48
2022/11/16 12:08:52;;;;;;;1.10;0.20;;;;;;;;;;6081576;23;20028;-47
2022/11/16 12:11:24;;;;;;;1.10;0.20;;;;;;;;;;6085434;23;20505;-47
2022/11/16 12:13:58;;;;;;;4.10;0.40;;;;;;;;;;6092506;23;20018;-46
2022/11/16 12:16:28;;;;;;;1.30;0.20;;;;;;;;;;6082897;23;20550;-48
2022/11/16 12:19:01;;;;;;;1.30;0.20;;;;;;;;;;6082719;23;20709;-48
2022/11/16 12:21:34;;;;;;;1.17;0.27;;;;;;;;;;6060524;23;20044;-48
2022/11/16 12:24:09;;;;;;;1.38;0.40;;;;;;;;;;6057448;23;20021;-47
2022/11/16 12:26:44;;;;;;;1.25;0.20;;;;;;;;;;6092694;23;20104;-47
2022/11/16 12:29:20;;;;;;;1.00;0.20;;;;;;;;;;6071136;23;20041;-48
2022/11/16 12:31:53;;;;;;;1.35;0.30;;;;;;;;;;6089079;23;20077;-48
2022/11/16 12:34:23;;;;;;;1.57;0.30;;;;;;;;;;6091303;23;20022;-48
2022/11/16 12:36:56;;;;;;;1.63;0.30;;;;;;;;;;6076782;23;20399;-50
2022/11/16 12:39:24;;;;;;;1.50;0.28;;;;;;;;;;6078557;23;20663;-49
2022/11/16 12:42:02;;;;;;;3.83;0.30;;;;;;;;;;6086051;23;20394;-48
2022/11/16 12:44:33;;;;;;;1.20;0.20;;;;;;;;;;6093984;23;20037;-48
2022/11/16 12:47:03;;;;;;;1.00;0.20;;;;;;;;;;6084048;23;20017;-49
2022/11/16 12:49:36;;;;;;;1.40;0.25;;;;;;;;;;6078454;23;20025;-48
2022/11/16 12:52:08;;;;;;;1.60;0.40;;;;;;;;;;6090083;23;20074;-47
2022/11/16 12:54:55;;;;;;;1.65;0.50;;;;;;;;;;6085611;23;20368;-49
2022/11/16 12:57:25;;;;;;;1.35;0.20;;;;;;;;;;6092350;23;20022;-48
2022/11/16 12:59:59;;;;;;;1.30;0.20;;;;;;;;;;6074790;23;20496;-50
2022/11/16 13:02:30;;;;;;;1.85;0.47;;;;;;;;;;6080204;23;20033;-50
2022/11/16 13:05:00;;;;;;;2.13;0.40;;;;;;;;;;6086945;23;20022;-47
2022/11/16 13:07:31;;;;;;;1.75;0.68;;;;;;;;;;6085649;23;20620;-47
2022/11/16 13:10:00;;;;;;;1.85;0.40;;;;;;;;;;6076275;23;20820;-49
2022/11/16 13:12:27;;;;;;;1.57;0.40;;;;;;;;;;6087675;23;20018;-47
2022/11/16 13:14:55;;;;;;;1.98;0.68;;;;;;;;;;6083280;23;20532;-49
2022/11/16 13:17:24;;;;;;;1.15;0.20;;;;;;;;;;6074666;23;20010;-49
2022/11/16 13:19:58;;;;;;;1.30;0.20;;;;;;;;;;6101236;23;20041;-49
2022/11/16 13:22:27;;;;;;;1.00;0.20;;;;;;;;;;6103448;23;20028;-50
2022/11/16 13:24:57;;;;;;;1.10;0.20;;;;;;;;;;6072543;23;20033;-49
2022/11/16 13:27:30;;;;;;;1.08;0.20;;;;;;;;;;6075255;23;20022;-47
2022/11/16 13:29:59;;;;;;;3.50;0.95;;;;;;;;;;6099597;23;20077;-47
2022/11/16 13:32:30;;;;;;;1.77;0.25;;;;;;;;;;6095512;23;20088;-48
2022/11/16 13:34:58;;;;;;;1.35;0.35;;;;;;;;;;6100726;23;20766;-46
2022/11/16 13:37:41;;;;;;;4.83;0.70;;;;;;;;;;6094976;23;20018;-48
2022/11/16 13:40:20;;;;;;;2.95;0.90;;;;;;;;;;6097054;23;20033;-50
2022/11/16 13:42:58;;;;;;;2.17;0.95;;;;;;;;;;6099520;23;20101;-50
2022/11/16 13:45:26;;;;;;;7.53;0.50;;;;;;;;;;6097124;23;20022;-48
2022/11/16 13:47:57;;;;;;;1.67;0.40;;;;;;;;;;6073195;23;20408;-48
2022/11/16 13:50:30;;;;;;;1.70;0.50;;;;;;;;;;6074989;23;20021;-49
2022/11/16 13:53:00;;;;;;;1.50;0.30;;;;;;;;;;6069932;23;20088;-49
2022/11/16 13:55:29;;;;;;;1.48;0.40;;;;;;;;;;6091238;23;20018;-49
2022/11/16 13:57:56;;;;;;;2.33;1.05;;;;;;;;;;6091423;23;20108;-49
2022/11/16 14:00:24;;;;;;;1.20;0.20;;;;;;;;;;6096720;23;20026;-51
2022/11/16 14:03:10;;;;;;;3.27;0.80;;;;;;;;;;6087623;23;20018;-49
2022/11/16 14:05:38;;;;;;;2.38;0.50;;;;;;;;;;6099934;23;20484;-50
2022/11/16 14:08:37;;;;;;;1.50;0.20;;;;;;;;;;6089704;23;20018;-49
2022/11/16 14:11:25;;;;;;;1.10;0.20;;;;;;;;;;6070498;23;20342;-51
2022/11/16 14:13:52;;;;;;;1.50;0.38;;;;;;;;;;6075718;23;20294;-50
2022/11/16 14:16:31;;;;;;;1.60;0.40;;;;;;;;;;6092859;23;20014;-47
2022/11/16 14:18:59;;;;;;;1.27;0.25;;;;;;;;;;6098294;23;20169;-51
2022/11/16 14:21:35;;;;;;;1.35;0.30;;;;;;;;;;6091573;23;20044;-47
2022/11/16 14:24:06;;;;;;;1.38;0.20;;;;;;;;;;6097823;23;20041;-50
2022/11/16 14:26:44;;;;;;;1.40;0.20;;;;;;;;;;6101756;23;20018;-47
2022/11/16 14:29:27;;;;;;;1.83;0.63;;;;;;;;;;6099046;23;20072;-48
2022/11/16 14:31:55;;;;;;;1.58;0.38;;;;;;;;;;6096883;23;20040;-49
2022/11/16 14:34:24;;;;;;;1.33;0.20;;;;;;;;;;6101363;23;20021;-48
2022/11/16 14:36:53;;;;;;;1.25;0.20;;;;;;;;;;6096508;23;20488;-49
2022/11/16 14:39:28;;;;;;;1.33;0.73;;;;;;;;;;6100152;23;20037;-50
2022/11/16 14:41:56;;;;;;;1.20;0.30;;;;;;;;;;6071059;23;20096;-52
2022/11/16 14:44:25;;;;;;;4.20;0.20;;;;;;;;;;6077896;23;20069;-48
2022/11/16 14:46:52;;;;;;;0.90;0.17;;;;;;;;;;6094698;23;20035;-48
2022/11/16 14:49:20;;;;;;;1.13;0.20;;;;;;;;;;6097441;23;20052;-47
2022/11/16 14:51:48;;;;;;;2.00;0.80;;;;;;;;;;6096017;23;20017;-50
2022/11/16 14:54:19;;;;;;;2.40;0.50;;;;;;;;;;6100294;23;20018;-47
2022/11/16 14:56:57;;;;;;;1.20;0.20;;;;;;;;;;6103083;23;20022;-47
2022/11/16 14:59:24;;;;;;;1.98;0.70;;;;;;;;;;6096914;23;20032;-48
2022/11/16 15:01:51;;;;;;;1.85;0.20;;;;;;;;;;6097435;23;20524;-47
2022/11/16 15:04:18;;;;;;;1.00;0.20;;;;;;;;;;6097724;23;20026;-49
2022/11/16 15:06:47;;;;;;;1.53;0.30;;;;;;;;;;6100791;23;20073;-51
2022/11/16 15:09:17;;;;;;;1.17;0.20;;;;;;;;;;6095751;23;20018;-49
2022/11/16 15:14:34;;;;;;;1.52;0.40;;;;;;;;;;6101042;23;20025;-47
2022/11/16 15:17:00;;;;;;;3.80;1.38;;;;;;;;;;6102977;23;20014;-47
2022/11/16 15:19:28;;;;;;;1.30;0.20;;;;;;;;;;6100670;23;20014;-49
2022/11/16 15:21:55;;;;;;;1.95;0.75;;;;;;;;;;6100014;23;20022;-49
2022/11/16 15:24:25;;;;;;;2.88;0.63;;;;;;;;;;6101225;23;20733;-48
2022/11/16 15:26:52;;;;;;;1.30;0.20;;;;;;;;;;6100277;23;20018;-48
2022/11/16 15:29:20;;;;;;;1.80;0.57;;;;;;;;;;6097589;23;20080;-48
2022/11/16 15:31:48;;;;;;;1.50;0.30;;;;;;;;;;6101525;23;20018;-50
2022/11/16 15:34:16;;;;;;;1.10;0.20;;;;;;;;;;6102467;23;20029;-52